Time;durP1;ratioP1;P1;durP2;ratioP2;P2;SDS_P1;SDS_P2;PMS_P1;PMS_P2;Temp;Humidity;BMP_temperature;BMP_pressure;BME280_temperature;BME280_humidity;BME280_pressure;Samples;Min_cycle;Max_cycle;Signal;HPM_P1;HPM_P2
2023/08/13 00:01:33;;;;;;;6.40;1.65;;;;;;;;;;4967258;28;20046;-63
2023/08/13 00:04:00;;;;;;;6.57;1.40;;;;;;;;;;4967913;28;20042;-66
2023/08/13 00:06:27;;;;;;;4.60;1.30;;;;;;;;;;4979674;28;20057;-64
2023/08/13 00:08:53;;;;;;;3.78;0.95;;;;;;;;;;4982833;28;20546;-64
2023/08/13 00:11:20;;;;;;;3.88;1.20;;;;;;;;;;4966852;28;20511;-65
2023/08/13 00:13:47;;;;;;;3.75;1.17;;;;;;;;;;4966350;28;20100;-64
2023/08/13 00:16:13;;;;;;;3.63;1.20;;;;;;;;;;4968069;28;20129;-65
2023/08/13 00:18:40;;;;;;;3.70;1.10;;;;;;;;;;4967298;28;20471;-61
2023/08/13 00:21:07;;;;;;;3.85;0.90;;;;;;;;;;4982977;28;20042;-67
2023/08/13 00:23:33;;;;;;;3.67;1.17;;;;;;;;;;4966023;28;20076;-66
2023/08/13 00:26:00;;;;;;;4.78;1.10;;;;;;;;;;4965827;28;20046;-65
2023/08/13 00:28:26;;;;;;;5.13;1.20;;;;;;;;;;4967296;28;20038;-66
2023/08/13 00:30:54;;;;;;;3.08;0.80;;;;;;;;;;4984796;28;20121;-65
2023/08/13 00:33:21;;;;;;;3.85;1.20;;;;;;;;;;4972487;28;20049;-66
2023/08/13 00:35:48;;;;;;;5.07;1.30;;;;;;;;;;4974988;28;20050;-64
2023/08/13 00:38:14;;;;;;;4.47;1.48;;;;;;;;;;4970247;28;20074;-68
2023/08/13 00:40:41;;;;;;;5.35;1.38;;;;;;;;;;4984848;28;20050;-66
2023/08/13 00:43:08;;;;;;;4.57;1.42;;;;;;;;;;4986502;28;20047;-65
2023/08/13 00:45:35;;;;;;;5.95;1.42;;;;;;;;;;4969392;28;20230;-68
2023/08/13 00:48:03;;;;;;;4.00;1.30;;;;;;;;;;4969195;28;20042;-65
2023/08/13 00:50:31;;;;;;;3.88;1.40;;;;;;;;;;4969588;28;20061;-64
2023/08/13 00:52:58;;;;;;;3.55;1.38;;;;;;;;;;4983906;28;20065;-63
2023/08/13 00:55:25;;;;;;;6.35;1.80;;;;;;;;;;4969509;28;20046;-65
2023/08/13 00:57:52;;;;;;;3.50;1.10;;;;;;;;;;4967121;28;20116;-64
2023/08/13 01:00:19;;;;;;;3.72;1.48;;;;;;;;;;4969344;28;20046;-64
2023/08/13 01:02:46;;;;;;;3.70;1.27;;;;;;;;;;4982255;28;20050;-64
2023/08/13 01:05:12;;;;;;;2.75;0.98;;;;;;;;;;4972478;28;20042;-66
2023/08/13 01:07:55;;;;;;;4.63;1.30;;;;;;;;;;4969616;28;20066;-63
2023/08/13 01:10:31;;;;;;;4.15;1.30;;;;;;;;;;4985939;28;20519;-65
2023/08/13 01:12:58;;;;;;;3.83;1.10;;;;;;;;;;4971262;28;20038;-64
2023/08/13 01:15:25;;;;;;;4.35;1.30;;;;;;;;;;4971463;28;20098;-62
2023/08/13 01:17:52;;;;;;;3.80;1.05;;;;;;;;;;4972112;28;20155;-62
2023/08/13 01:20:19;;;;;;;3.67;1.25;;;;;;;;;;4971416;28;20141;-62
2023/08/13 01:22:49;;;;;;;2.72;1.10;;;;;;;;;;4969480;28;20031;-62
2023/08/13 01:25:17;;;;;;;3.78;1.20;;;;;;;;;;4985154;28;20854;-63
2023/08/13 01:28:02;;;;;;;4.78;1.05;;;;;;;;;;4969063;28;20053;-61
2023/08/13 01:30:29;;;;;;;3.63;1.20;;;;;;;;;;4970879;28;20042;-62
2023/08/13 01:32:59;;;;;;;3.70;1.30;;;;;;;;;;4974874;28;20129;-62
2023/08/13 01:35:26;;;;;;;6.30;1.40;;;;;;;;;;4988983;28;20101;-64
2023/08/13 01:37:53;;;;;;;4.07;1.25;;;;;;;;;;4972181;28;20042;-64
2023/08/13 01:40:20;;;;;;;3.75;1.30;;;;;;;;;;4973881;28;20474;-63
2023/08/13 01:42:47;;;;;;;4.22;1.33;;;;;;;;;;4974791;28;20046;-64
2023/08/13 01:45:13;;;;;;;4.05;1.30;;;;;;;;;;4977372;28;20061;-62
2023/08/13 01:47:40;;;;;;;3.92;1.30;;;;;;;;;;4973279;28;20361;-62
2023/08/13 01:50:07;;;;;;;4.90;1.40;;;;;;;;;;4975510;28;20038;-60
2023/08/13 01:52:33;;;;;;;4.47;1.83;;;;;;;;;;4975419;28;20049;-63
2023/08/13 01:55:00;;;;;;;4.25;1.50;;;;;;;;;;4988448;28;20073;-63
2023/08/13 01:57:27;;;;;;;3.80;1.33;;;;;;;;;;4973164;28;20034;-63
2023/08/13 01:59:53;;;;;;;3.58;1.40;;;;;;;;;;4972637;28;20046;-64
2023/08/13 02:02:20;;;;;;;2.88;1.00;;;;;;;;;;4974546;28;20152;-63
2023/08/13 02:04:47;;;;;;;3.42;1.20;;;;;;;;;;4972472;28;20061;-64
2023/08/13 02:07:13;;;;;;;4.00;1.33;;;;;;;;;;4973338;28;20043;-63
2023/08/13 02:09:40;;;;;;;3.72;1.30;;;;;;;;;;4965482;28;20038;-63
2023/08/13 02:12:07;;;;;;;3.53;1.23;;;;;;;;;;4987202;28;20038;-62
2023/08/13 02:14:33;;;;;;;4.15;1.40;;;;;;;;;;4971067;28;20486;-62
2023/08/13 02:17:00;;;;;;;4.80;1.33;;;;;;;;;;4973170;28;20554;-61
2023/08/13 02:19:27;;;;;;;3.80;1.50;;;;;;;;;;4975377;28;20046;-62
2023/08/13 02:21:53;;;;;;;5.10;1.40;;;;;;;;;;4988286;28;20062;-64
2023/08/13 02:24:20;;;;;;;4.50;1.40;;;;;;;;;;4974366;28;20057;-62
2023/08/13 02:26:46;;;;;;;5.50;1.40;;;;;;;;;;4968377;28;20471;-63
2023/08/13 02:29:13;;;;;;;8.10;1.63;;;;;;;;;;4971096;28;20045;-63
2023/08/13 02:31:40;;;;;;;4.93;1.80;;;;;;;;;;4970947;28;20031;-61
2023/08/13 02:34:06;;;;;;;4.95;1.90;;;;;;;;;;4986165;28;20046;-63
2023/08/13 02:36:33;;;;;;;4.40;1.67;;;;;;;;;;4973157;28;20047;-61
2023/08/13 02:38:59;;;;;;;4.35;1.85;;;;;;;;;;4972310;28;20034;-62
2023/08/13 02:41:26;;;;;;;5.53;2.00;;;;;;;;;;4970872;28;20038;-63
2023/08/13 02:43:54;;;;;;;4.25;1.90;;;;;;;;;;4970410;28;20476;-66
2023/08/13 02:46:21;;;;;;;6.90;1.88;;;;;;;;;;4971312;28;20043;-64
2023/08/13 02:48:48;;;;;;;3.83;1.50;;;;;;;;;;4969701;28;20050;-62
2023/08/13 02:51:15;;;;;;;5.38;1.75;;;;;;;;;;4973715;28;20510;-60
2023/08/13 02:53:41;;;;;;;4.47;1.75;;;;;;;;;;4972881;28;20133;-65
2023/08/13 02:56:08;;;;;;;6.22;1.70;;;;;;;;;;4986297;28;20459;-62
2023/08/13 02:58:35;;;;;;;5.15;1.90;;;;;;;;;;4970989;28;20049;-62
2023/08/13 03:01:02;;;;;;;4.97;2.20;;;;;;;;;;4970234;28;20060;-62
2023/08/13 03:03:28;;;;;;;6.97;2.38;;;;;;;;;;4987094;28;20053;-60
2023/08/13 03:05:55;;;;;;;4.82;2.10;;;;;;;;;;4973647;28;20046;-60
2023/08/13 03:08:21;;;;;;;6.93;2.45;;;;;;;;;;4973286;28;20050;-64
2023/08/13 03:10:48;;;;;;;6.18;2.20;;;;;;;;;;4969987;28;20038;-62
2023/08/13 03:13:15;;;;;;;6.00;2.10;;;;;;;;;;4984065;28;20038;-62
2023/08/13 03:15:43;;;;;;;6.72;2.20;;;;;;;;;;4970006;28;20046;-62
2023/08/13 03:18:09;;;;;;;4.85;2.20;;;;;;;;;;4983428;28;20042;-61
2023/08/13 03:20:36;;;;;;;5.50;2.13;;;;;;;;;;4970358;28;20159;-64
2023/08/13 03:23:04;;;;;;;7.47;1.80;;;;;;;;;;4971892;28;20050;-61
2023/08/13 03:25:31;;;;;;;4.20;1.80;;;;;;;;;;4969869;28;20074;-63
2023/08/13 03:27:57;;;;;;;5.45;2.05;;;;;;;;;;4970685;28;20053;-64
2023/08/13 03:30:24;;;;;;;4.90;1.80;;;;;;;;;;4969704;28;20690;-64
2023/08/13 03:32:51;;;;;;;4.47;1.80;;;;;;;;;;4971937;28;20906;-63
2023/08/13 03:35:18;;;;;;;6.88;2.20;;;;;;;;;;4971518;28;20081;-64
2023/08/13 03:37:44;;;;;;;5.07;2.17;;;;;;;;;;4969494;28;20046;-64
2023/08/13 03:40:11;;;;;;;6.03;2.25;;;;;;;;;;4971143;28;20867;-63
2023/08/13 03:42:38;;;;;;;5.25;2.15;;;;;;;;;;4970706;28;20411;-67
2023/08/13 03:45:05;;;;;;;4.35;1.95;;;;;;;;;;4971096;28;20062;-64
2023/08/13 03:47:32;;;;;;;8.18;2.38;;;;;;;;;;4961614;28;20038;-60
2023/08/13 03:49:58;;;;;;;5.90;2.35;;;;;;;;;;4985033;28;20042;-57
2023/08/13 03:52:25;;;;;;;5.28;2.10;;;;;;;;;;4984809;28;20042;-63
2023/08/13 03:54:52;;;;;;;7.43;2.50;;;;;;;;;;4970976;28;20127;-63
2023/08/13 03:57:18;;;;;;;7.60;2.60;;;;;;;;;;4969487;28;20046;-64
2023/08/13 03:59:45;;;;;;;5.05;2.72;;;;;;;;;;4968718;28;20870;-62
2023/08/13 04:02:12;;;;;;;7.25;3.47;;;;;;;;;;4970060;28;20107;-63
2023/08/13 04:04:38;;;;;;;8.98;4.40;;;;;;;;;;4969869;28;20113;-65
2023/08/13 04:07:05;;;;;;;11.30;5.15;;;;;;;;;;4969740;28;20094;-63
2023/08/13 04:09:32;;;;;;;7.82;3.83;;;;;;;;;;4984473;28;20034;-61
2023/08/13 04:11:58;;;;;;;8.93;3.58;;;;;;;;;;4972320;28;20050;-65
2023/08/13 04:14:25;;;;;;;11.77;4.00;;;;;;;;;;4969328;28;20317;-63
2023/08/13 04:16:52;;;;;;;7.03;3.53;;;;;;;;;;4972163;28;20041;-62
2023/08/13 04:19:18;;;;;;;7.50;3.20;;;;;;;;;;4973879;28;20395;-63
2023/08/13 04:21:45;;;;;;;6.63;3.00;;;;;;;;;;4971467;28;20090;-63
2023/08/13 04:24:11;;;;;;;8.75;3.15;;;;;;;;;;4969053;28;20042;-61
2023/08/13 04:26:38;;;;;;;6.80;2.90;;;;;;;;;;4979000;28;20046;-63
2023/08/13 04:29:05;;;;;;;5.45;3.05;;;;;;;;;;4973306;28;20042;-62
2023/08/13 04:31:31;;;;;;;5.95;2.70;;;;;;;;;;4986646;28;20692;-62
2023/08/13 04:33:58;;;;;;;6.75;3.35;;;;;;;;;;4987087;28;20030;-63
2023/08/13 04:36:24;;;;;;;5.60;2.80;;;;;;;;;;4981154;28;20057;-63
2023/08/13 04:38:51;;;;;;;8.10;2.83;;;;;;;;;;4972616;28;20077;-64
2023/08/13 04:41:18;;;;;;;7.35;2.83;;;;;;;;;;4985888;28;20048;-64
2023/08/13 04:43:44;;;;;;;6.72;2.80;;;;;;;;;;4970538;28;20988;-64
2023/08/13 04:46:11;;;;;;;5.55;2.53;;;;;;;;;;4970600;28;20042;-64
2023/08/13 04:48:45;;;;;;;5.95;2.58;;;;;;;;;;4982513;28;20046;-66
2023/08/13 04:51:12;;;;;;;6.25;2.58;;;;;;;;;;4967125;28;20046;-64
2023/08/13 04:53:38;;;;;;;6.38;2.78;;;;;;;;;;4968429;28;20162;-63
2023/08/13 04:56:08;;;;;;;6.75;2.97;;;;;;;;;;4968732;28;20117;-67
2023/08/13 04:58:35;;;;;;;6.30;3.03;;;;;;;;;;4968784;28;20052;-63
2023/08/13 05:01:02;;;;;;;5.72;2.72;;;;;;;;;;4970906;28;20050;-63
2023/08/13 05:03:28;;;;;;;5.70;2.50;;;;;;;;;;4969995;28;20062;-61
2023/08/13 05:05:55;;;;;;;6.40;2.55;;;;;;;;;;4970668;28;20046;-62
2023/08/13 05:08:22;;;;;;;5.85;2.55;;;;;;;;;;4969323;28;21087;-63
2023/08/13 05:11:08;;;;;;;5.63;2.90;;;;;;;;;;4973929;28;20038;-63
2023/08/13 05:13:35;;;;;;;5.65;2.97;;;;;;;;;;4971322;28;20217;-63
2023/08/13 05:16:01;;;;;;;8.15;3.20;;;;;;;;;;4973547;28;20180;-63
2023/08/13 05:18:28;;;;;;;10.20;3.00;;;;;;;;;;4970686;28;20503;-63
2023/08/13 05:20:55;;;;;;;7.35;2.95;;;;;;;;;;4972249;28;20049;-63
2023/08/13 05:23:21;;;;;;;6.13;2.67;;;;;;;;;;4971817;28;20038;-62
2023/08/13 05:25:48;;;;;;;6.90;2.90;;;;;;;;;;4953894;28;20125;-62
2023/08/13 05:28:14;;;;;;;5.97;3.13;;;;;;;;;;4972429;28;20045;-62
2023/08/13 05:30:41;;;;;;;6.57;2.97;;;;;;;;;;4971083;28;20128;-62
2023/08/13 05:33:08;;;;;;;6.70;3.38;;;;;;;;;;4973559;28;20124;-63
2023/08/13 05:35:34;;;;;;;8.60;3.58;;;;;;;;;;4971888;28;20142;-64
2023/08/13 05:38:01;;;;;;;8.10;3.70;;;;;;;;;;4971087;28;20089;-64
2023/08/13 05:40:28;;;;;;;7.40;3.65;;;;;;;;;;4972377;28;20672;-64
2023/08/13 05:42:55;;;;;;;9.98;3.75;;;;;;;;;;4972086;28;20061;-64
2023/08/13 05:45:21;;;;;;;7.35;3.72;;;;;;;;;;4977337;28;20061;-64
2023/08/13 05:47:48;;;;;;;6.68;3.65;;;;;;;;;;4985958;28;20122;-66
2023/08/13 05:50:15;;;;;;;9.57;3.63;;;;;;;;;;4984082;28;20044;-63
2023/08/13 05:52:41;;;;;;;8.40;4.32;;;;;;;;;;4982743;28;20066;-63
2023/08/13 05:55:08;;;;;;;6.72;3.33;;;;;;;;;;4982745;28;20037;-61
2023/08/13 05:57:35;;;;;;;9.05;3.63;;;;;;;;;;4981796;28;20035;-62
2023/08/13 06:00:05;;;;;;;10.48;4.10;;;;;;;;;;4984578;28;20049;-61
2023/08/13 06:02:32;;;;;;;11.65;4.00;;;;;;;;;;4987722;28;20129;-63
2023/08/13 06:04:58;;;;;;;8.52;4.03;;;;;;;;;;5001245;28;20206;-64
2023/08/13 06:07:25;;;;;;;6.13;3.30;;;;;;;;;;5018190;28;20038;-62
2023/08/13 06:09:51;;;;;;;12.75;3.85;;;;;;;;;;5006948;28;20039;-64
2023/08/13 06:12:18;;;;;;;9.93;4.28;;;;;;;;;;4987533;28;20034;-63
2023/08/13 06:14:45;;;;;;;8.45;3.97;;;;;;;;;;4980220;28;20043;-63
2023/08/13 06:17:11;;;;;;;8.80;3.88;;;;;;;;;;4980018;28;20089;-65
2023/08/13 06:19:38;;;;;;;9.48;4.05;;;;;;;;;;4981653;28;20038;-63
2023/08/13 06:22:05;;;;;;;8.98;4.35;;;;;;;;;;4982005;28;20038;-62
2023/08/13 06:24:52;;;;;;;9.07;3.67;;;;;;;;;;4999488;28;20045;-62
2023/08/13 06:27:18;;;;;;;9.52;4.35;;;;;;;;;;5004659;28;20083;-64
2023/08/13 06:29:45;;;;;;;8.57;3.92;;;;;;;;;;5004290;28;20116;-67
2023/08/13 06:32:11;;;;;;;8.32;3.58;;;;;;;;;;5003786;28;20041;-64
2023/08/13 06:34:38;;;;;;;10.63;3.90;;;;;;;;;;4981285;28;20540;-66
2023/08/13 06:37:05;;;;;;;9.98;4.18;;;;;;;;;;4983169;28;20045;-65
2023/08/13 06:39:31;;;;;;;10.68;4.25;;;;;;;;;;4993735;28;20586;-64
2023/08/13 06:41:58;;;;;;;8.43;3.80;;;;;;;;;;5008912;28;20046;-63
2023/08/13 06:44:44;;;;;;;8.55;4.20;;;;;;;;;;4985811;28;20066;-63
2023/08/13 06:47:12;;;;;;;6.80;3.65;;;;;;;;;;4980663;28;20614;-64
2023/08/13 06:49:39;;;;;;;9.95;4.00;;;;;;;;;;4958062;28;20057;-62
2023/08/13 06:52:06;;;;;;;9.73;4.25;;;;;;;;;;4958945;28;20086;-62
2023/08/13 06:54:33;;;;;;;8.63;3.95;;;;;;;;;;4957031;28;20043;-65
2023/08/13 06:57:00;;;;;;;8.85;4.30;;;;;;;;;;4978296;28;20503;-62
2023/08/13 06:59:27;;;;;;;6.97;3.53;;;;;;;;;;4980520;28;20510;-65
2023/08/13 07:01:53;;;;;;;9.18;3.92;;;;;;;;;;4980667;28;20216;-63
2023/08/13 07:04:20;;;;;;;7.45;3.60;;;;;;;;;;4996645;28;20045;-62
2023/08/13 07:06:47;;;;;;;6.38;3.60;;;;;;;;;;4998069;28;20042;-64
2023/08/13 07:09:13;;;;;;;7.93;3.83;;;;;;;;;;4981323;28;20113;-61
2023/08/13 07:11:40;;;;;;;6.80;3.60;;;;;;;;;;4982616;28;20035;-61
2023/08/13 07:14:07;;;;;;;10.48;3.30;;;;;;;;;;4982223;28;20166;-65
2023/08/13 07:16:35;;;;;;;9.68;3.83;;;;;;;;;;4980183;28;20179;-60
2023/08/13 07:19:01;;;;;;;9.43;4.18;;;;;;;;;;4980280;28;20096;-66
2023/08/13 07:21:28;;;;;;;7.38;3.42;;;;;;;;;;4993516;28;20042;-63
2023/08/13 07:23:54;;;;;;;9.48;3.47;;;;;;;;;;4984277;28;20654;-64
2023/08/13 07:26:21;;;;;;;8.57;3.88;;;;;;;;;;4975958;28;20048;-64
2023/08/13 07:28:48;;;;;;;7.85;3.53;;;;;;;;;;4979398;28;21722;-64
2023/08/13 07:31:15;;;;;;;6.57;2.95;;;;;;;;;;4998739;28;20037;-61
2023/08/13 07:33:41;;;;;;;6.25;3.42;;;;;;;;;;4986893;28;22494;-62
2023/08/13 07:36:08;;;;;;;9.48;4.07;;;;;;;;;;4980527;28;20815;-63
2023/08/13 07:38:35;;;;;;;7.90;3.95;;;;;;;;;;4994915;28;20117;-63
2023/08/13 07:41:03;;;;;;;8.32;3.60;;;;;;;;;;4984481;28;20129;-63
2023/08/13 07:43:34;;;;;;;7.50;3.80;;;;;;;;;;4984395;28;20422;-64
2023/08/13 07:46:00;;;;;;;6.97;3.65;;;;;;;;;;4983030;28;20102;-62
2023/08/13 07:48:27;;;;;;;6.93;3.50;;;;;;;;;;4983522;28;20042;-63
2023/08/13 07:50:53;;;;;;;6.88;3.15;;;;;;;;;;4987153;28;20407;-63
2023/08/13 07:53:20;;;;;;;8.30;2.90;;;;;;;;;;4984360;28;20042;-62
2023/08/13 07:55:49;;;;;;;6.63;3.00;;;;;;;;;;5000517;28;20602;-66
2023/08/13 07:58:16;;;;;;;5.45;2.60;;;;;;;;;;4984507;28;20057;-67
2023/08/13 08:00:42;;;;;;;7.88;3.20;;;;;;;;;;4998688;28;20082;-62
2023/08/13 08:03:09;;;;;;;9.85;3.00;;;;;;;;;;4982806;28;20038;-62
2023/08/13 08:05:36;;;;;;;10.75;2.97;;;;;;;;;;4999243;28;20057;-63
2023/08/13 08:08:03;;;;;;;6.68;2.70;;;;;;;;;;4982356;28;20054;-63
2023/08/13 08:10:30;;;;;;;6.60;2.80;;;;;;;;;;4980820;28;20403;-64
2023/08/13 08:12:56;;;;;;;6.10;3.22;;;;;;;;;;4997380;28;20204;-62
2023/08/13 08:15:23;;;;;;;5.80;3.10;;;;;;;;;;4983016;28;20057;-62
2023/08/13 08:17:50;;;;;;;5.97;2.95;;;;;;;;;;4982026;28;20411;-65
2023/08/13 08:20:16;;;;;;;6.63;2.80;;;;;;;;;;4997433;28;20455;-61
2023/08/13 08:22:43;;;;;;;4.50;2.50;;;;;;;;;;4982410;28;20075;-62
2023/08/13 08:25:10;;;;;;;6.35;2.80;;;;;;;;;;4985554;28;20085;-62
2023/08/13 08:27:37;;;;;;;6.43;3.00;;;;;;;;;;4997761;28;20054;-64
2023/08/13 08:30:04;;;;;;;6.45;2.50;;;;;;;;;;5004170;28;20109;-63
2023/08/13 08:32:31;;;;;;;5.68;2.75;;;;;;;;;;5001470;28;20042;-64
2023/08/13 08:34:58;;;;;;;5.72;2.78;;;;;;;;;;5003947;28;20022;-63
2023/08/13 08:37:25;;;;;;;6.13;2.90;;;;;;;;;;4999796;28;20038;-62
2023/08/13 08:39:52;;;;;;;6.57;2.95;;;;;;;;;;5004944;28;20058;-64
2023/08/13 08:42:20;;;;;;;7.88;2.72;;;;;;;;;;5003522;28;20042;-63
2023/08/13 08:45:06;;;;;;;8.07;2.55;;;;;;;;;;5011453;28;20444;-63
2023/08/13 08:47:34;;;;;;;6.15;3.20;;;;;;;;;;5009061;28;20034;-62
2023/08/13 08:50:04;;;;;;;7.53;3.25;;;;;;;;;;5008677;28;20041;-64
2023/08/13 08:52:31;;;;;;;6.65;3.17;;;;;;;;;;5003808;28;20058;-61
2023/08/13 08:54:58;;;;;;;8.05;3.40;;;;;;;;;;5007888;28;20180;-66
2023/08/13 08:57:24;;;;;;;5.70;2.78;;;;;;;;;;5009482;28;20046;-66
2023/08/13 08:59:52;;;;;;;6.68;3.25;;;;;;;;;;5001310;28;20035;-62
2023/08/13 09:02:18;;;;;;;7.13;3.38;;;;;;;;;;4987428;28;20038;-63
2023/08/13 09:04:45;;;;;;;7.15;3.22;;;;;;;;;;4986736;28;20122;-62
2023/08/13 09:07:12;;;;;;;10.63;3.17;;;;;;;;;;4991145;28;20125;-62
2023/08/13 09:09:43;;;;;;;6.57;3.28;;;;;;;;;;4989782;28;20222;-63
2023/08/13 09:12:10;;;;;;;8.82;3.58;;;;;;;;;;4985269;28;20089;-64
2023/08/13 09:14:36;;;;;;;8.60;3.25;;;;;;;;;;4985035;28;20498;-62
2023/08/13 09:17:03;;;;;;;6.38;3.30;;;;;;;;;;4986004;28;20041;-64
2023/08/13 09:19:33;;;;;;;8.07;3.58;;;;;;;;;;4988640;28;20118;-64
2023/08/13 09:22:01;;;;;;;8.55;4.00;;;;;;;;;;4981792;28;20046;-64
2023/08/13 09:24:48;;;;;;;6.50;3.13;;;;;;;;;;4991060;28;20038;-63
2023/08/13 09:27:15;;;;;;;7.40;3.67;;;;;;;;;;4996381;28;20058;-63
2023/08/13 09:29:41;;;;;;;8.48;3.75;;;;;;;;;;4978926;28;20044;-63
2023/08/13 09:32:08;;;;;;;7.43;3.75;;;;;;;;;;4981756;28;20049;-62
2023/08/13 09:34:35;;;;;;;6.15;3.42;;;;;;;;;;4978426;28;20621;-64
2023/08/13 09:37:02;;;;;;;6.60;3.72;;;;;;;;;;4979997;28;20053;-65
2023/08/13 09:39:30;;;;;;;6.65;3.58;;;;;;;;;;4980235;28;20138;-64
2023/08/13 09:41:57;;;;;;;9.18;4.18;;;;;;;;;;4981897;28;20077;-65
2023/08/13 09:44:24;;;;;;;7.63;3.78;;;;;;;;;;4980997;28;20123;-64
2023/08/13 09:46:56;;;;;;;6.77;3.63;;;;;;;;;;4979720;28;20046;-64
2023/08/13 09:49:23;;;;;;;7.00;3.75;;;;;;;;;;4972189;28;20043;-66
2023/08/13 09:51:52;;;;;;;6.80;3.60;;;;;;;;;;4995386;28;20332;-69
2023/08/13 09:54:19;;;;;;;6.20;3.50;;;;;;;;;;4977928;28;20589;-65
2023/08/13 09:56:47;;;;;;;7.18;3.63;;;;;;;;;;4989982;28;20089;-64
2023/08/13 09:59:15;;;;;;;5.53;2.97;;;;;;;;;;4984290;28;20057;-65
2023/08/13 10:01:42;;;;;;;6.43;3.72;;;;;;;;;;4983314;28;20041;-58
2023/08/13 10:06:40;;;;;;;6.40;3.30;;;;;;;;;;5000746;23;20053;-59
2023/08/13 10:09:07;;;;;;;7.72;3.35;;;;;;;;;;4982827;28;20503;-59
2023/08/13 10:11:34;;;;;;;6.45;3.30;;;;;;;;;;4971167;28;20049;-59
2023/08/13 10:14:01;;;;;;;8.20;3.50;;;;;;;;;;4978333;28;20046;-58
2023/08/13 10:16:27;;;;;;;5.68;3.08;;;;;;;;;;4978048;28;20093;-60
2023/08/13 10:18:57;;;;;;;6.53;3.20;;;;;;;;;;4979119;28;20038;-63
2023/08/13 10:21:33;;;;;;;6.45;3.50;;;;;;;;;;4984393;28;20035;-63
2023/08/13 10:24:01;;;;;;;5.32;3.10;;;;;;;;;;4977668;28;20038;-65
2023/08/13 10:26:28;;;;;;;7.82;3.47;;;;;;;;;;4977906;28;20371;-66
2023/08/13 10:28:55;;;;;;;5.55;2.85;;;;;;;;;;4978258;28;20047;-64
2023/08/13 10:31:25;;;;;;;6.82;3.67;;;;;;;;;;4977461;28;20070;-65
2023/08/13 10:34:21;;;;;;;7.35;3.08;;;;;;;;;;4978565;28;20046;-64
2023/08/13 10:36:55;;;;;;;5.38;2.95;;;;;;;;;;4964151;28;20498;-66
2023/08/13 10:39:38;;;;;;;8.15;3.67;;;;;;;;;;4992768;28;20180;-66
2023/08/13 10:42:06;;;;;;;5.90;3.25;;;;;;;;;;5018659;28;20674;-64
2023/08/13 10:44:33;;;;;;;5.80;3.22;;;;;;;;;;5017105;28;20033;-65
2023/08/13 10:47:00;;;;;;;7.40;3.58;;;;;;;;;;5016754;28;20064;-66
2023/08/13 10:49:27;;;;;;;5.95;3.38;;;;;;;;;;5016864;28;20038;-65
2023/08/13 10:51:54;;;;;;;6.80;3.45;;;;;;;;;;5017408;28;20026;-66
2023/08/13 10:54:24;;;;;;;7.97;3.45;;;;;;;;;;5017073;28;20576;-65
2023/08/13 10:56:58;;;;;;;7.13;3.60;;;;;;;;;;4999535;28;20627;-65
2023/08/13 10:59:40;;;;;;;5.88;3.28;;;;;;;;;;5017652;28;20075;-64
2023/08/13 11:02:10;;;;;;;8.38;3.58;;;;;;;;;;5017876;28;20049;-64
2023/08/13 11:04:37;;;;;;;5.78;3.35;;;;;;;;;;5013937;28;20099;-66
2023/08/13 11:07:03;;;;;;;7.20;3.42;;;;;;;;;;5018203;28;20068;-65
2023/08/13 11:09:31;;;;;;;6.32;3.20;;;;;;;;;;5015534;28;20401;-65
2023/08/13 11:11:58;;;;;;;6.57;3.50;;;;;;;;;;5017157;28;20608;-64
2023/08/13 11:14:24;;;;;;;6.10;2.95;;;;;;;;;;5015654;28;20128;-65
2023/08/13 11:16:52;;;;;;;7.72;3.00;;;;;;;;;;5016877;28;20048;-65
2023/08/13 11:19:19;;;;;;;7.43;3.42;;;;;;;;;;5016270;28;20148;-67
2023/08/13 11:21:47;;;;;;;7.20;3.30;;;;;;;;;;5003993;28;20068;-66
2023/08/13 11:24:15;;;;;;;6.32;2.97;;;;;;;;;;5004898;28;20047;-66
2023/08/13 11:26:42;;;;;;;6.57;3.40;;;;;;;;;;4994929;28;20045;-63
2023/08/13 11:29:08;;;;;;;6.40;3.53;;;;;;;;;;5014893;28;20054;-65
2023/08/13 11:31:36;;;;;;;9.05;3.80;;;;;;;;;;5014858;28;20037;-64
2023/08/13 11:34:02;;;;;;;11.00;3.72;;;;;;;;;;5015409;28;20049;-64
2023/08/13 11:36:29;;;;;;;6.53;3.63;;;;;;;;;;5013696;28;20059;-65
2023/08/13 11:38:56;;;;;;;7.15;3.65;;;;;;;;;;5016223;28;20071;-64
2023/08/13 11:41:22;;;;;;;6.78;3.65;;;;;;;;;;5013275;28;20094;-64
2023/08/13 11:43:55;;;;;;;6.43;3.67;;;;;;;;;;5011417;28;20034;-62
2023/08/13 11:46:22;;;;;;;7.63;3.40;;;;;;;;;;5011966;28;21417;-64
2023/08/13 11:48:55;;;;;;;6.68;3.65;;;;;;;;;;5011222;28;20049;-64
2023/08/13 11:51:25;;;;;;;8.05;3.78;;;;;;;;;;5012467;28;20037;-65
2023/08/13 11:53:52;;;;;;;5.93;3.10;;;;;;;;;;5009874;28;20048;-64
2023/08/13 11:56:19;;;;;;;8.52;3.80;;;;;;;;;;5009386;28;20594;-64
2023/08/13 11:58:46;;;;;;;5.82;3.10;;;;;;;;;;5012711;28;20049;-63
2023/08/13 12:01:15;;;;;;;6.47;3.53;;;;;;;;;;5013296;28;20061;-63
2023/08/13 12:03:42;;;;;;;8.60;3.40;;;;;;;;;;5013487;28;20037;-65
2023/08/13 12:06:09;;;;;;;6.75;3.60;;;;;;;;;;5014003;28;20053;-63
2023/08/13 12:08:36;;;;;;;6.35;3.45;;;;;;;;;;4997228;28;20052;-63
2023/08/13 12:11:03;;;;;;;6.22;3.53;;;;;;;;;;5014489;28;20034;-63
2023/08/13 12:13:30;;;;;;;5.55;3.05;;;;;;;;;;5013228;28;20044;-64
2023/08/13 12:15:56;;;;;;;7.43;3.42;;;;;;;;;;5009152;28;20131;-64
2023/08/13 12:18:23;;;;;;;7.30;3.72;;;;;;;;;;5008712;28;20049;-63
2023/08/13 12:20:49;;;;;;;9.45;3.58;;;;;;;;;;4997159;28;20049;-64
2023/08/13 12:23:16;;;;;;;10.27;3.90;;;;;;;;;;5009847;28;20121;-66
2023/08/13 12:25:42;;;;;;;7.80;3.78;;;;;;;;;;5010913;28;20099;-64
2023/08/13 12:28:09;;;;;;;6.35;3.58;;;;;;;;;;5015589;28;20698;-62
2023/08/13 12:30:36;;;;;;;8.77;3.90;;;;;;;;;;5001707;28;20041;-64
2023/08/13 12:33:02;;;;;;;8.50;4.25;;;;;;;;;;4970615;28;20048;-63
2023/08/13 12:35:29;;;;;;;8.57;4.38;;;;;;;;;;4969340;28;20264;-65
2023/08/13 12:37:55;;;;;;;6.10;3.47;;;;;;;;;;4977127;28;20055;-63
2023/08/13 12:40:22;;;;;;;6.65;3.97;;;;;;;;;;4970713;28;20093;-64
2023/08/13 12:42:49;;;;;;;6.88;4.13;;;;;;;;;;4971571;28;20045;-65
2023/08/13 12:45:16;;;;;;;7.28;4.18;;;;;;;;;;4970366;28;20043;-64
2023/08/13 12:48:02;;;;;;;10.05;4.35;;;;;;;;;;4957252;28;20051;-63
2023/08/13 12:50:29;;;;;;;9.55;4.38;;;;;;;;;;4951938;28;20577;-63
2023/08/13 12:52:56;;;;;;;9.60;4.30;;;;;;;;;;4955267;28;20072;-63
2023/08/13 12:55:23;;;;;;;7.93;4.18;;;;;;;;;;4950083;28;20043;-65
2023/08/13 12:57:50;;;;;;;8.85;4.50;;;;;;;;;;4956215;28;20130;-64
2023/08/13 13:00:16;;;;;;;6.68;4.50;;;;;;;;;;4956934;28;20066;-64
2023/08/13 13:02:44;;;;;;;6.40;3.88;;;;;;;;;;4955279;28;20034;-63
2023/08/13 13:05:11;;;;;;;7.13;4.35;;;;;;;;;;4954748;28;20039;-62
2023/08/13 13:07:37;;;;;;;8.45;4.60;;;;;;;;;;4954751;28;20060;-63
2023/08/13 13:10:04;;;;;;;8.52;4.53;;;;;;;;;;4968237;28;20042;-63
2023/08/13 13:12:51;;;;;;;9.07;4.22;;;;;;;;;;4938943;28;20047;-63
2023/08/13 13:15:18;;;;;;;8.93;4.70;;;;;;;;;;4930125;28;20043;-63
2023/08/13 13:17:44;;;;;;;8.15;4.82;;;;;;;;;;4939168;28;20054;-63
2023/08/13 13:20:11;;;;;;;9.75;5.03;;;;;;;;;;4938659;28;20353;-65
2023/08/13 13:22:44;;;;;;;8.50;4.43;;;;;;;;;;4938795;28;20043;-64
2023/08/13 13:25:11;;;;;;;7.18;4.47;;;;;;;;;;4945628;28;20129;-64
2023/08/13 13:27:39;;;;;;;7.57;4.40;;;;;;;;;;4937421;28;20463;-64
2023/08/13 13:30:06;;;;;;;7.63;4.63;;;;;;;;;;4960423;28;20577;-64
2023/08/13 13:32:36;;;;;;;7.28;3.80;;;;;;;;;;4958746;28;20039;-63
2023/08/13 13:35:03;;;;;;;5.45;3.63;;;;;;;;;;4939004;28;20130;-63
2023/08/13 13:37:32;;;;;;;6.13;3.80;;;;;;;;;;4959886;28;20046;-64
2023/08/13 13:39:58;;;;;;;7.68;3.97;;;;;;;;;;4948819;28;20035;-64
2023/08/13 13:42:25;;;;;;;6.78;3.85;;;;;;;;;;4937959;28;20046;-63
2023/08/13 13:44:52;;;;;;;6.95;4.00;;;;;;;;;;4940200;28;20369;-64
2023/08/13 13:47:18;;;;;;;10.70;4.28;;;;;;;;;;4958712;28;20054;-64
2023/08/13 13:49:45;;;;;;;8.35;4.00;;;;;;;;;;4972571;28;20051;-64
2023/08/13 13:52:12;;;;;;;8.13;3.85;;;;;;;;;;5019190;28;20103;-64
2023/08/13 13:54:58;;;;;;;5.63;3.35;;;;;;;;;;4963908;28;20046;-64
2023/08/13 13:57:26;;;;;;;7.05;3.38;;;;;;;;;;4964953;28;20050;-62
2023/08/13 13:59:54;;;;;;;6.47;3.28;;;;;;;;;;4966777;28;20078;-63
2023/08/13 14:02:21;;;;;;;8.13;4.00;;;;;;;;;;4977438;28;20038;-63
2023/08/13 14:04:48;;;;;;;6.40;3.85;;;;;;;;;;4977823;28;20059;-62
2023/08/13 14:07:14;;;;;;;5.88;3.10;;;;;;;;;;4992866;28;20109;-63
2023/08/13 14:09:41;;;;;;;10.43;3.40;;;;;;;;;;4972736;28;20491;-63
2023/08/13 14:12:08;;;;;;;8.25;3.58;;;;;;;;;;4979255;28;20031;-63
2023/08/13 14:14:35;;;;;;;6.63;3.05;;;;;;;;;;4969526;28;20127;-64
2023/08/13 14:17:02;;;;;;;6.93;3.58;;;;;;;;;;4986274;28;20038;-63
2023/08/13 14:19:29;;;;;;;5.15;3.13;;;;;;;;;;4985744;28;20062;-61
2023/08/13 14:21:56;;;;;;;5.70;3.47;;;;;;;;;;4968102;28;20085;-64
2023/08/13 14:24:22;;;;;;;5.97;3.20;;;;;;;;;;4968610;28;20051;-70
2023/08/13 14:26:49;;;;;;;8.32;3.20;;;;;;;;;;4967595;28;20045;-62
2023/08/13 14:29:16;;;;;;;5.38;2.80;;;;;;;;;;4985513;28;20054;-61
2023/08/13 14:31:43;;;;;;;5.82;3.08;;;;;;;;;;4977882;28;20034;-61
2023/08/13 14:34:09;;;;;;;5.53;2.83;;;;;;;;;;5021757;28;20041;-62
2023/08/13 14:36:36;;;;;;;7.05;3.17;;;;;;;;;;5020598;28;20096;-66
2023/08/13 14:39:03;;;;;;;6.60;3.40;;;;;;;;;;5023473;28;20037;-64
2023/08/13 14:41:36;;;;;;;6.55;3.67;;;;;;;;;;5023796;28;20591;-64
2023/08/13 14:44:03;;;;;;;6.47;3.30;;;;;;;;;;5023014;28;20042;-63
2023/08/13 14:46:31;;;;;;;8.48;4.05;;;;;;;;;;5019881;28;20490;-64
2023/08/13 14:48:57;;;;;;;5.50;3.30;;;;;;;;;;5008900;28;20075;-62